createdAt,value
2022-11-28T00:02:08.611Z,101433.61
2022-11-28T00:04:35.252Z,101438.16
2022-11-28T00:07:01.901Z,101443.81
2022-11-28T00:09:28.607Z,101447.64
2022-11-28T00:11:55.162Z,101447.96
2022-11-28T00:14:21.836Z,101453.75
2022-11-28T00:16:48.542Z,101454.61
2022-11-28T00:19:15.140Z,101459.15
2022-11-28T00:21:41.770Z,101457.96
2022-11-28T00:24:08.438Z,101458.33
2022-11-28T00:26:38.847Z,101463.10
2022-11-28T00:29:05.648Z,101460.49
2022-11-28T00:31:33.414Z,101461.64
2022-11-28T00:34:01.737Z,101466.09
2022-11-28T00:36:28.832Z,101466.02
2022-11-28T00:38:55.486Z,101462.14
2022-11-28T05:59:44.322Z,101576.66
2022-11-28T06:02:12.408Z,101577.48
2022-11-28T06:04:41.982Z,101588.30
2022-11-28T06:07:08.856Z,101593.33
2022-11-28T06:09:35.531Z,101595.91
2022-11-28T06:12:02.176Z,101598.31
2022-11-28T06:14:28.802Z,101594.73
2022-11-28T06:16:55.511Z,101595.30
2022-11-28T06:19:22.139Z,101594.50
2022-11-28T06:21:50.274Z,101598.59
2022-11-28T06:24:17.091Z,101601.80
2022-11-28T06:26:43.763Z,101603.95
2022-11-28T06:29:10.381Z,101603.20
2022-11-28T06:31:37.354Z,101602.65
2022-11-28T06:34:04.014Z,101600.03
2022-11-28T06:36:31.022Z,101601.77
2022-11-28T06:38:57.725Z,101603.13
2022-11-28T06:41:24.399Z,101604.32
2022-11-28T06:43:51.062Z,101602.90
2022-11-28T06:46:19.191Z,101601.52
2022-11-28T06:48:46.409Z,101601.71
2022-11-28T06:51:13.711Z,101598.91
2022-11-28T06:53:40.456Z,101595.58
2022-11-28T06:56:08.393Z,101599.65
2022-11-28T06:58:35.464Z,101597.38
2022-11-28T07:01:07.144Z,101598.39
2022-11-28T07:03:33.880Z,101597.90
2022-11-28T07:06:02.184Z,101596.48
2022-11-28T07:08:30.238Z,101588.59
2022-11-28T07:10:57.602Z,101584.05
2022-11-28T07:13:24.886Z,101577.27
2022-11-28T07:15:51.560Z,101579.92
2022-11-28T07:18:18.304Z,101586.11
2022-11-28T07:20:44.909Z,101589.31
2022-11-28T07:23:11.571Z,101589.71
2022-11-28T07:25:38.197Z,101589.80
2022-11-28T07:28:05.024Z,101589.95
2022-11-28T07:30:31.931Z,101584.83
2022-11-28T07:32:58.591Z,101594.58
2022-11-28T07:35:25.259Z,101600.13
2022-11-28T07:37:51.976Z,101599.90
2022-11-28T07:40:19.818Z,101598.62
2022-11-28T07:42:48.720Z,101600.40
2022-11-28T07:45:15.389Z,101602.31
2022-11-28T07:47:42.130Z,101600.11
2022-11-28T07:50:09.241Z,101605.46
2022-11-28T07:52:35.903Z,101606.77
2022-11-28T07:55:02.638Z,101611.66
2022-11-28T07:57:30.683Z,101613.42
2022-11-28T07:59:57.546Z,101615.51
2022-11-28T08:02:24.271Z,101616.60
2022-11-28T08:07:37.822Z,101620.35
2022-11-28T08:10:06.380Z,101622.45
2022-11-28T08:12:32.998Z,101617.23
2022-11-28T08:14:59.619Z,101621.14
2022-11-28T08:17:26.351Z,101619.94
2022-11-28T08:19:52.948Z,101612.70
2022-11-28T08:22:19.581Z,101613.60
2022-11-28T08:24:46.202Z,101612.30
2022-11-28T08:27:13.137Z,101612.91
2022-11-28T08:29:39.813Z,101617.79
2022-11-28T08:32:06.476Z,101616.81
2022-11-28T08:34:33.103Z,101617.98
2022-11-28T08:36:59.838Z,101621.52
2022-11-28T08:39:26.602Z,101619.15
2022-11-28T08:41:57.070Z,101621.47
2022-11-28T08:44:23.875Z,101623.23
2022-11-28T08:46:50.593Z,101619.30
2022-11-28T08:49:17.324Z,101620.11
2022-11-28T08:51:43.978Z,101618.13
2022-11-28T08:54:10.628Z,101618.60
2022-11-28T08:56:37.276Z,101616.45
2022-11-28T08:59:04.247Z,101613.77
2022-11-28T09:01:31.253Z,101613.94
2022-11-28T09:03:58.029Z,101607.14
2022-11-28T09:06:24.961Z,101611.98
2022-11-28T18:49:45.811Z,101635.77
2022-11-28T18:52:13.318Z,101637.50
2022-11-28T18:54:39.971Z,101641.00
2022-11-28T18:57:07.815Z,101643.60
2022-11-28T18:59:34.577Z,101645.14
2022-11-28T19:02:02.180Z,101642.63
2022-11-28T19:04:28.875Z,101640.96
2022-11-28T19:06:55.765Z,101638.49
2022-11-28T19:09:22.612Z,101640.91
2022-11-28T19:11:49.345Z,101639.27
2022-11-28T19:14:18.395Z,101640.63
2022-11-28T19:16:46.921Z,101640.13
2022-11-28T19:19:15.921Z,101642.59
2022-11-28T19:21:43.199Z,101638.17
2022-11-28T19:24:12.611Z,101635.70
2022-11-28T19:26:39.369Z,101632.66
2022-11-28T19:29:06.248Z,101631.17
2022-11-28T19:31:34.051Z,101626.84
2022-11-28T19:34:02.427Z,101623.55
2022-11-28T19:36:32.223Z,101622.05
2022-11-28T19:38:59.744Z,101622.02
2022-11-28T19:41:26.854Z,101622.17
2022-11-28T19:43:53.473Z,101620.73
2022-11-28T19:46:20.522Z,101618.42
2022-11-28T19:48:48.138Z,101616.50
2022-11-28T19:51:15.868Z,101617.17
2022-11-28T19:53:42.625Z,101615.93
2022-11-28T19:56:14.991Z,101614.85
2022-11-28T19:58:42.123Z,101614.48
2022-11-28T20:01:19.331Z,101613.15
2022-11-28T20:03:49.992Z,101608.05
2022-11-28T20:06:36.832Z,101608.55
2022-11-28T20:09:06.040Z,101608.17
2022-11-28T20:11:34.031Z,101613.95
2022-11-28T20:14:06.473Z,101612.19
2022-11-28T20:16:34.971Z,101610.56
2022-11-28T20:19:02.016Z,101617.10
2022-11-28T20:21:28.989Z,101616.79
2022-11-28T20:23:58.130Z,101619.02
2022-11-28T20:26:26.765Z,101619.00
2022-11-28T20:28:54.665Z,101615.95
2022-11-28T20:31:24.906Z,101614.17
2022-11-28T20:33:52.295Z,101618.42
2022-11-28T20:36:20.578Z,101619.48
2022-11-28T20:38:47.902Z,101623.48
2022-11-28T20:41:15.341Z,101619.27
2022-11-28T20:43:42.243Z,101620.60
2022-11-28T20:46:10.041Z,101613.66
2022-11-28T20:48:36.804Z,101619.27
2022-11-28T20:51:06.518Z,101623.11
2022-11-28T20:53:33.267Z,101623.11
2022-11-28T20:56:05.672Z,101624.64
2022-11-28T20:58:32.541Z,101625.62
2022-11-28T21:01:00.305Z,101621.90
2022-11-28T21:03:27.000Z,101623.54
2022-11-28T21:05:59.433Z,101628.50
2022-11-28T21:08:30.395Z,101625.17
2022-11-28T21:11:36.396Z,101623.95
2022-11-28T21:14:05.204Z,101630.13
2022-11-28T21:16:46.945Z,101628.91
2022-11-28T21:19:13.707Z,101633.63
2022-11-28T21:21:40.683Z,101632.30
2022-11-28T21:24:09.599Z,101630.98
2022-11-28T21:26:40.985Z,101629.77
2022-11-28T21:29:11.270Z,101626.52
2022-11-28T21:31:40.412Z,101628.63
2022-11-28T21:34:07.182Z,101630.02
2022-11-28T21:36:33.907Z,101628.07
2022-11-28T21:39:00.816Z,101625.10
2022-11-28T21:41:29.312Z,101627.78
2022-11-28T21:43:56.045Z,101636.21
2022-11-28T21:46:22.899Z,101638.14
2022-11-28T21:48:49.543Z,101635.81
2022-11-28T21:51:49.525Z,101633.80
2022-11-28T21:54:16.439Z,101636.55
2022-11-28T21:56:44.981Z,101634.63
2022-11-28T21:59:11.753Z,101637.09
2022-11-28T22:01:39.432Z,101639.86
2022-11-28T22:04:06.150Z,101642.12
2022-11-28T22:06:33.040Z,101642.27
2022-11-28T22:09:08.328Z,101644.20
2022-11-28T22:11:35.979Z,101638.39
2022-11-28T22:14:03.220Z,101632.42
2022-11-28T22:16:30.106Z,101635.01
2022-11-28T22:18:59.565Z,101638.11
2022-11-28T22:21:50.961Z,101636.72
2022-11-28T22:24:13.507Z,101638.14
2022-11-28T22:26:40.192Z,101633.72
2022-11-28T22:29:06.882Z,101632.81
2022-11-28T22:31:33.613Z,101633.29
2022-11-28T22:34:00.417Z,101628.00
2022-11-28T22:36:27.321Z,101627.36
2022-11-28T22:38:55.008Z,101624.96
2022-11-28T22:41:28.265Z,101625.62
2022-11-28T22:43:59.409Z,101629.83
2022-11-28T22:46:27.186Z,101627.96
2022-11-28T22:48:53.823Z,101631.45
2022-11-28T22:51:22.317Z,101629.59
2022-11-28T22:53:53.345Z,101626.03
2022-11-28T22:56:20.099Z,101622.61
2022-11-28T22:58:46.868Z,101621.36
2022-11-28T23:01:21.993Z,101622.94
2022-11-28T23:03:48.862Z,101623.48
2022-11-28T23:06:17.835Z,101619.84
2022-11-28T23:08:45.556Z,101615.67
2022-11-28T23:11:14.350Z,101616.05
2022-11-28T23:13:41.358Z,101614.52
2022-11-28T23:16:12.770Z,101615.34
2022-11-28T23:18:39.931Z,101611.28
2022-11-28T23:21:06.761Z,101608.87
2022-11-28T23:23:34.071Z,101617.02
2022-11-28T23:26:11.942Z,101617.02
2022-11-28T23:28:39.006Z,101616.61
2022-11-28T23:31:10.853Z,101618.69
2022-11-28T23:33:37.721Z,101616.59
2022-11-28T23:36:17.549Z,101610.50
2022-11-28T23:38:44.923Z,101612.73
2022-11-28T23:41:11.728Z,101613.85
2022-11-28T23:43:38.508Z,101613.13
2022-11-28T23:46:05.351Z,101616.05
2022-11-28T23:48:32.147Z,101613.27
2022-11-28T23:50:58.876Z,101613.41
2022-11-28T23:53:25.524Z,101615.33
2022-11-28T23:55:52.207Z,101617.30
2022-11-28T23:58:19.037Z,101614.67
